Time;durP1;ratioP1;P1;durP2;ratioP2;P2;SDS_P1;SDS_P2;PMS_P1;PMS_P2;Temp;Humidity;BMP_temperature;BMP_pressure;BME280_temperature;BME280_humidity;BME280_pressure;Samples;Min_cycle;Max_cycle;Signal;HPM_P1;HPM_P2
2021/11/12 00:04:35;;;;;;;11.60;8.25;;;;;;;1.12;77.63;101920.19;1775691;80;21488;-72
2021/11/12 00:13:05;;;;;;;10.58;8.08;;;;;;;1.12;78.09;101903.39;1816393;79;23209;-72
2021/11/12 00:15:25;;;;;;;;;;;;;;;1.07;78.19;101902.52;1790997;80;21056;-73
2021/11/12 00:17:52;;;;;;;10.10;8.68;;;;;;;1.05;78.34;101902.53;1789442;79;21150;-72
2021/11/12 00:20:21;;;;;;;10.18;9.10;;;;;;;1.05;78.40;101909.43;1789511;79;20888;-73
2021/11/12 00:22:49;;;;;;;13.05;8.90;;;;;;;1.04;78.53;101900.80;1789515;80;20899;-73
2021/11/12 00:25:16;;;;;;;9.18;8.03;;;;;;;1.01;78.70;101895.64;1789516;79;20927;-72
2021/11/12 00:27:44;;;;;;;12.23;9.05;;;;;;;0.99;78.76;101885.30;1789387;80;20919;-72
2021/11/12 00:32:58;;;;;;;10.95;8.45;;;;;;;1.00;78.88;101875.82;1789310;80;20888;-74
2021/11/12 00:35:37;;;;;;;10.70;8.48;;;;;;;1.00;78.95;101870.66;1786581;80;21488;-72
2021/11/12 00:38:05;;;;;;;11.22;9.33;;;;;;;1.00;79.07;101857.74;1788715;80;20872;-73
2021/11/12 00:41:17;;;;;;;9.73;8.65;;;;;;;0.99;79.14;101857.33;1788788;79;20975;-72
2021/11/12 00:45:31;;;;;;;10.38;8.38;;;;;;;1.00;79.29;101852.58;1789293;80;20884;-72
2021/11/12 00:48:10;;;;;;;11.20;8.40;;;;;;;0.99;79.47;101850.43;1789730;80;20923;-71
2021/11/12 00:55:38;;;;;;;9.28;8.38;;;;;;;0.96;79.62;101840.11;1789490;79;21173;-71
2021/11/12 00:58:02;;;;;;;11.05;8.65;;;;;;;0.97;79.66;101842.26;1788653;79;20861;-71
2021/11/12 01:00:30;;;;;;;9.98;8.95;;;;;;;0.96;79.75;101828.49;1789455;79;20939;-70
2021/11/12 01:02:57;;;;;;;11.43;9.25;;;;;;;0.96;79.86;101822.03;1789774;80;20896;-72
2021/11/12 01:05:24;;;;;;;11.50;9.13;;;;;;;0.96;79.99;101832.80;1789474;80;20966;-72
2021/11/12 01:07:52;;;;;;;13.93;9.00;;;;;;;0.96;80.18;101827.20;1789784;79;21115;-72
2021/11/12 01:10:19;;;;;;;11.68;9.83;;;;;;;0.98;80.19;101827.20;1789479;79;20884;-72
2021/11/12 01:12:46;;;;;;;11.12;9.40;;;;;;;0.96;80.34;101822.03;1785112;79;20916;-72
2021/11/12 01:15:15;;;;;;;11.73;9.25;;;;;;;0.96;80.39;101810.85;1784472;79;20957;-71
2021/11/12 01:17:43;;;;;;;13.50;10.03;;;;;;;0.96;80.49;101806.98;1784765;80;21412;-72
2021/11/12 01:20:12;;;;;;;13.95;10.38;;;;;;;0.96;80.66;101802.66;1784348;79;21156;-71
2021/11/12 01:22:39;;;;;;;12.43;9.13;;;;;;;0.96;80.84;101800.08;1784320;79;20904;-71
2021/11/12 01:25:10;;;;;;;14.70;10.72;;;;;;;0.96;80.94;101800.08;1783858;79;20943;-72
2021/11/12 01:27:39;;;;;;;14.03;10.80;;;;;;;0.96;81.04;101803.95;1784051;79;20979;-71
2021/11/12 01:30:08;;;;;;;12.75;9.23;;;;;;;0.98;81.14;101817.73;1783480;79;20876;-70
2021/11/12 01:32:35;;;;;;;12.28;10.18;;;;;;;1.00;81.24;101815.12;1784173;80;21152;-71
2021/11/12 01:35:02;;;;;;;14.60;10.50;;;;;;;1.02;81.29;101810.41;1783768;80;20924;-71
2021/11/12 01:37:30;;;;;;;14.47;11.15;;;;;;;1.05;81.21;101800.50;1783766;79;20936;-70
2021/11/12 01:40:01;;;;;;;14.93;11.38;;;;;;;1.06;81.11;101801.36;1783923;79;20936;-71
2021/11/12 01:42:48;;;;;;;13.62;10.10;;;;;;;1.08;80.99;101798.34;1784183;79;20976;-71
2021/11/12 01:45:15;;;;;;;13.00;10.23;;;;;;;1.09;81.00;101797.06;1783958;80;21506;-71
2021/11/12 01:48:21;;;;;;;14.95;11.00;;;;;;;1.10;81.05;101812.12;1784076;80;20920;-71
2021/11/12 01:50:21;;;;;;;;;;;;;;;1.11;81.04;101801.80;1770484;80;20987;-70
2021/11/12 01:52:46;;;;;;;12.73;10.82;;;;;;;1.12;81.06;101802.20;1783484;79;20445;-71
2021/11/12 02:00:29;;;;;;;14.33;11.35;;;;;;;1.15;81.19;101793.59;1783808;80;21453;-70
2021/11/12 02:02:59;;;;;;;13.28;11.22;;;;;;;1.15;81.17;101789.71;1784125;79;21460;-71
2021/11/12 02:05:26;;;;;;;12.75;9.75;;;;;;;1.16;81.12;101797.47;1783723;79;20979;-71
2021/11/12 02:07:54;;;;;;;15.45;11.40;;;;;;;1.18;81.19;101794.89;1783905;79;20920;-70
2021/11/12 02:10:24;;;;;;;14.78;11.35;;;;;;;1.19;81.33;101790.98;1783776;79;21175;-70
2021/11/12 02:13:00;;;;;;;13.45;10.00;;;;;;;1.22;81.42;101791.41;1781552;80;20861;-70
2021/11/12 02:15:21;;;;;;;13.62;11.03;;;;;;;1.27;81.42;101793.98;1779496;80;20853;-71
2021/11/12 02:17:58;;;;;;;13.65;11.22;;;;;;;1.31;81.43;101797.88;1781064;80;20932;-71
2021/11/12 02:20:42;;;;;;;13.32;10.82;;;;;;;1.35;81.45;101795.68;1753309;80;21336;-71
2021/11/12 02:23:06;;;;;;;15.80;10.80;;;;;;;1.41;81.42;101798.70;1780279;80;21997;-71
2021/11/12 02:25:38;;;;;;;13.93;11.65;;;;;;;1.47;81.32;101793.52;1780985;80;20888;-71
2021/11/12 02:28:12;;;;;;;14.47;10.05;;;;;;;1.53;81.21;101793.91;1780735;80;20936;-71
2021/11/12 02:30:39;;;;;;;12.70;11.20;;;;;;;1.56;81.15;101784.43;1781097;80;21006;-73
2021/11/12 02:33:18;;;;;;;12.95;10.75;;;;;;;1.60;81.07;101783.96;1781335;80;21019;-71
2021/11/12 02:36:08;;;;;;;12.53;11.18;;;;;;;1.62;80.96;101782.23;1781095;80;21063;-73
2021/11/12 02:38:42;;;;;;;15.00;11.60;;;;;;;1.66;80.86;101788.67;1780976;80;20995;-72
2021/11/12 02:41:09;;;;;;;14.25;12.20;;;;;;;1.68;80.79;101785.23;1781087;80;20893;-71
2021/11/12 02:43:37;;;;;;;13.20;9.88;;;;;;;1.69;80.69;101780.07;1781049;80;20956;-73
2021/11/12 02:46:06;;;;;;;13.53;10.58;;;;;;;1.68;80.56;101775.75;1781077;80;21026;-73
2021/11/12 02:48:37;;;;;;;16.17;12.70;;;;;;;1.66;80.43;101772.31;1780960;80;20956;-74
2021/11/12 02:51:07;;;;;;;14.20;11.30;;;;;;;1.61;80.43;101765.87;1780937;80;20912;-72
2021/11/12 02:53:34;;;;;;;14.95;11.33;;;;;;;1.57;80.46;101762.86;1781624;80;20916;-74
2021/11/12 02:56:04;;;;;;;14.90;10.72;;;;;;;1.54;80.51;101762.89;1781003;80;20940;-71
2021/11/12 02:58:31;;;;;;;16.00;10.55;;;;;;;1.51;80.61;101759.00;1781080;80;20920;-73
2021/11/12 03:00:59;;;;;;;18.67;11.95;;;;;;;1.49;80.69;101759.47;1780997;80;21126;-74
2021/11/12 03:03:27;;;;;;;14.05;11.48;;;;;;;1.48;80.80;101764.64;1781189;80;20939;-73
2021/11/12 03:05:55;;;;;;;17.90;11.68;;;;;;;1.47;80.77;101757.73;1781009;80;20991;-72
2021/11/12 03:08:21;;;;;;;18.92;12.60;;;;;;;1.43;80.87;101743.55;1781310;80;20924;-71
2021/11/12 03:10:58;;;;;;;16.52;10.98;;;;;;;1.42;80.89;101743.54;1780994;80;20995;-70
2021/11/12 03:13:27;;;;;;;18.75;11.83;;;;;;;1.39;80.98;101737.10;1780921;80;20932;-72
2021/11/12 03:15:55;;;;;;;14.23;11.10;;;;;;;1.38;81.12;101735.36;1780890;80;20964;-72
2021/11/12 03:18:23;;;;;;;15.32;10.18;;;;;;;1.36;81.23;101736.69;1781017;80;21338;-72
2021/11/12 03:20:52;;;;;;;17.52;11.80;;;;;;;1.36;81.37;101732.81;1780982;80;20927;-72
2021/11/12 03:23:23;;;;;;;13.85;11.35;;;;;;;1.36;81.49;101725.50;1781051;80;21386;-72
2021/11/12 03:56:26;;;;;;;14.78;11.18;;;;;;;1.31;82.09;101669.96;1780965;80;21039;-72
2021/11/12 04:03:44;;;;;;;13.08;10.70;;;;;;;1.32;82.39;101674.25;1741326;80;20896;-71
2021/11/12 04:06:18;;;;;;;16.15;11.40;;;;;;;1.35;82.39;101668.20;1778764;80;21142;-71
2021/11/12 04:19:44;;;;;;;21.68;16.40;;;;;;;1.46;82.64;101657.37;1781015;80;21422;-73
2021/11/12 04:30:32;;;;;;;14.58;10.15;;;;;;;1.50;82.68;101652.62;1778823;80;20889;-71
2021/11/12 05:43:36;;;;;;;10.70;8.23;;;;;;;2.39;81.93;101616.14;1775470;80;21186;-72
2021/11/12 05:45:57;;;;;;;9.75;8.45;;;;;;;2.52;81.67;101617.73;1727116;80;21060;-74
2021/11/12 05:56:06;;;;;;;12.05;7.40;;;;;;;2.89;81.04;101610.81;1775293;80;20964;-71
2021/11/12 05:58:35;;;;;;;12.43;7.60;;;;;;;2.98;80.61;101605.96;1775563;80;20881;-72
2021/11/12 06:01:03;;;;;;;10.18;7.95;;;;;;;3.04;80.48;101604.59;1775229;80;20908;-74
2021/11/12 06:03:30;;;;;;;12.47;8.80;;;;;;;3.07;80.40;101596.36;1775727;80;21387;-73
2021/11/12 06:05:58;;;;;;;10.98;8.55;;;;;;;3.14;80.31;101589.80;1775398;80;21536;-74
2021/11/12 06:08:25;;;;;;;14.10;9.60;;;;;;;3.22;80.20;101586.65;1775524;80;21460;-73
2021/11/12 06:10:53;;;;;;;12.33;8.80;;;;;;;3.28;79.99;101579.64;1775120;80;20845;-73
2021/11/12 06:13:20;;;;;;;14.20;9.20;;;;;;;3.36;79.78;101573.48;1777676;80;20928;-74
2021/11/12 06:15:48;;;;;;;15.63;9.58;;;;;;;3.41;79.64;101576.44;1780989;80;20979;-72
2021/11/12 06:18:15;;;;;;;14.18;9.03;;;;;;;3.51;79.52;101578.44;1781342;80;21100;-70
2021/11/12 06:20:43;;;;;;;14.78;9.20;;;;;;;3.62;79.43;101581.72;1780934;80;20892;-73
2021/11/12 06:23:10;;;;;;;18.73;9.68;;;;;;;3.73;79.25;101582.86;1780920;80;20994;-72
2021/11/12 06:25:37;;;;;;;10.48;7.58;;;;;;;3.83;79.09;101571.45;1780950;80;20861;-73
2021/11/12 06:28:05;;;;;;;12.07;7.72;;;;;;;3.94;78.78;101577.77;1781017;80;20892;-73
2021/11/12 06:30:32;;;;;;;12.25;7.35;;;;;;;4.03;78.61;101570.27;1781022;80;21041;-74
2021/11/12 06:32:59;;;;;;;11.00;7.70;;;;;;;4.11;78.42;101569.67;1781262;80;20916;-74
2021/11/12 06:35:27;;;;;;;8.73;7.15;;;;;;;4.18;78.32;101566.11;1780962;80;20956;-72
2021/11/12 06:37:54;;;;;;;14.78;7.83;;;;;;;4.28;78.30;101553.80;1781232;80;20853;-73
2021/11/12 06:40:22;;;;;;;12.13;6.80;;;;;;;4.39;78.26;101557.05;1781194;80;20896;-73
2021/11/12 06:43:05;;;;;;;12.75;6.35;;;;;;;4.52;78.12;101552.02;1781419;80;21767;-72
2021/11/12 06:51:03;;;;;;;10.50;6.65;;;;;;;4.87;77.24;101558.25;1781091;80;20857;-73
2021/11/12 06:53:31;;;;;;;10.08;6.28;;;;;;;4.96;76.92;101552.00;1781105;80;21354;-73
2021/11/12 06:56:01;;;;;;;9.88;7.42;;;;;;;5.04;76.77;101546.63;1781168;80;21130;-72
2021/11/12 06:58:29;;;;;;;8.65;6.85;;;;;;;5.10;76.56;101542.14;1781264;80;21989;-72
2021/11/12 07:00:56;;;;;;;13.25;7.25;;;;;;;5.17;76.24;101539.80;1780846;80;20928;-72
2021/11/12 07:03:24;;;;;;;8.38;6.28;;;;;;;5.20;76.11;101537.58;1780973;80;20936;-73
2021/11/12 07:05:53;;;;;;;9.70;7.45;;;;;;;5.25;76.03;101534.90;1781007;80;20916;-73
2021/11/12 07:08:21;;;;;;;8.70;6.20;;;;;;;5.27;75.81;101530.07;1780922;80;21166;-73
2021/11/12 07:10:52;;;;;;;11.53;7.45;;;;;;;5.31;75.70;101539.94;1781039;80;20885;-74
2021/11/12 07:13:16;;;;;;;9.90;6.03;;;;;;;5.34;75.73;101522.98;1779157;80;20893;-74
2021/11/12 07:15:44;;;;;;;11.28;8.48;;;;;;;5.38;75.72;101518.97;1775197;80;20901;-73
2021/11/12 07:18:11;;;;;;;10.72;7.87;;;;;;;5.43;75.79;101518.85;1775263;80;20936;-75
2021/11/12 07:20:38;;;;;;;11.70;7.05;;;;;;;5.47;75.86;101516.59;1775181;80;21572;-74
2021/11/12 07:23:05;;;;;;;10.23;6.85;;;;;;;5.53;75.91;101511.22;1775141;80;20975;-74
2021/11/12 07:25:34;;;;;;;8.83;7.00;;;;;;;5.60;75.97;101508.89;1775166;80;20924;-74
2021/11/12 07:28:01;;;;;;;11.22;7.22;;;;;;;5.66;75.98;101509.62;1775211;80;20944;-74
2021/11/12 07:30:29;;;;;;;9.60;6.25;;;;;;;5.73;75.96;101507.27;1775280;80;20967;-74
2021/11/12 07:32:57;;;;;;;11.08;6.70;;;;;;;5.78;75.83;101500.19;1775156;80;21243;-74
2021/11/12 07:35:29;;;;;;;7.87;5.37;;;;;;;5.83;75.86;101496.19;1775197;80;20924;-73
2021/11/12 07:38:00;;;;;;;8.38;6.00;;;;;;;5.91;75.86;101502.88;1775020;80;21433;-74
2021/11/12 07:40:41;;;;;;;12.65;7.33;;;;;;;6.00;75.93;101504.41;1775655;80;20932;-81
2021/11/12 07:43:19;;;;;;;11.53;6.22;;;;;;;6.12;76.00;101506.70;1773170;80;21015;-81
2021/11/12 07:45:39;;;;;;;9.30;6.15;;;;;;;6.33;75.85;101514.36;1770676;80;21529;-81
2021/11/12 07:48:04;;;;;;;7.70;5.97;;;;;;;6.54;75.57;101512.91;1774294;80;20927;-80
2021/11/12 07:50:30;;;;;;;7.80;5.62;;;;;;;6.77;75.17;101517.44;1775586;80;20889;-80
2021/11/12 07:52:59;;;;;;;7.97;5.97;;;;;;;6.98;74.71;101503.34;1775217;80;20979;-80
2021/11/12 07:55:26;;;;;;;6.03;5.42;;;;;;;7.17;74.22;101490.60;1775486;80;20984;-76
2021/11/12 07:57:53;;;;;;;9.35;5.75;;;;;;;7.32;73.54;101488.80;1775280;80;21359;-77
2021/11/12 08:00:22;;;;;;;8.50;6.78;;;;;;;7.42;73.22;101483.67;1775150;80;20888;-76
2021/11/12 08:02:49;;;;;;;11.45;8.18;;;;;;;7.47;72.95;101474.41;1775468;80;20901;-77
2021/11/12 08:05:24;;;;;;;9.90;7.22;;;;;;;7.53;72.88;101478.56;1775230;80;21522;-76
2021/11/12 08:07:52;;;;;;;7.80;6.05;;;;;;;7.57;72.88;101479.70;1775110;80;20972;-76
2021/11/12 08:10:20;;;;;;;9.98;6.45;;;;;;;7.60;73.01;101483.54;1775048;80;21790;-77
2021/11/12 08:12:58;;;;;;;10.50;6.17;;;;;;;7.66;73.17;101483.30;1775204;80;21390;-78
2021/11/12 08:15:42;;;;;;;6.90;5.42;;;;;;;7.77;73.26;101464.66;1773333;80;21370;-79
2021/11/12 08:18:26;;;;;;;6.87;4.65;;;;;;;7.91;73.01;101464.64;1773334;80;21011;-75
2021/11/12 08:21:03;;;;;;;10.08;6.08;;;;;;;8.03;72.16;101457.69;1773374;80;20869;-78
2021/11/12 08:24:50;;;;;;;6.00;4.50;;;;;;;8.09;71.60;101458.32;1774271;80;21164;-77
2021/11/12 08:26:14;;;;;;;6.72;4.72;;;;;;;8.17;71.01;101451.50;1726981;80;20881;-78
2021/11/12 08:28:59;;;;;;;10.80;5.05;;;;;;;8.22;70.23;101445.64;1774345;80;20905;-79
2021/11/12 08:33:40;;;;;;;9.20;6.12;;;;;;;8.27;69.64;101443.73;1775388;80;20892;-79
2021/11/12 08:41:55;;;;;;;6.12;4.83;;;;;;;8.39;69.46;101428.03;1775419;80;20983;-79
2021/11/12 08:43:42;;;;;;;7.70;5.50;;;;;;;8.42;68.74;101429.24;1747723;80;20964;-82
2021/11/12 08:46:16;;;;;;;6.28;5.55;;;;;;;8.42;68.66;101421.41;1774499;80;20976;-81
2021/11/12 08:51:22;;;;;;;8.73;5.35;;;;;;;8.43;68.78;101430.13;1775244;80;20994;-82
2021/11/12 08:53:49;;;;;;;8.85;6.10;;;;;;;8.47;68.63;101429.94;1775540;80;21460;-80
2021/11/12 08:56:18;;;;;;;10.53;5.70;;;;;;;8.50;68.44;101425.05;1775600;80;20936;-77
2021/11/12 08:58:49;;;;;;;8.80;5.72;;;;;;;8.54;68.27;101416.61;1775457;80;20952;-77
2021/11/12 09:01:16;;;;;;;11.15;5.72;;;;;;;8.58;67.76;101419.08;1775757;80;21820;-78
2021/11/12 09:03:43;;;;;;;9.73;5.45;;;;;;;8.61;67.52;101415.03;1775360;80;20921;-77
2021/11/12 09:06:10;;;;;;;9.68;6.17;;;;;;;8.66;67.30;101413.07;1775554;80;20873;-78
2021/11/12 09:08:38;;;;;;;8.50;6.00;;;;;;;8.73;67.19;101407.14;1775269;80;21374;-78
2021/11/12 09:11:07;;;;;;;9.05;5.80;;;;;;;8.78;67.11;101407.84;1775375;80;21410;-77
2021/11/12 09:13:48;;;;;;;11.53;6.22;;;;;;;8.85;66.99;101404.05;1775865;80;21160;-76
2021/11/12 09:16:13;;;;;;;11.20;6.80;;;;;;;8.94;66.66;101402.84;1782635;80;20896;-76
2021/11/12 09:18:43;;;;;;;8.33;6.08;;;;;;;8.99;66.05;101403.48;1783629;80;21306;-77
2021/11/12 09:21:10;;;;;;;9.50;6.15;;;;;;;9.04;65.74;101401.53;1783162;80;20944;-75
2021/11/12 09:23:38;;;;;;;7.40;5.83;;;;;;;9.09;65.56;101400.03;1783555;80;20896;-76
2021/11/12 09:26:05;;;;;;;10.60;5.83;;;;;;;9.14;65.45;101387.62;1783594;80;21176;-75
2021/11/12 09:28:33;;;;;;;11.85;6.92;;;;;;;9.22;65.09;101387.30;1783537;80;20900;-72
2021/11/12 09:31:03;;;;;;;8.13;5.90;;;;;;;9.31;65.06;101386.90;1783835;80;20896;-73
2021/11/12 09:33:31;;;;;;;8.20;5.97;;;;;;;9.37;64.29;101391.04;1783881;80;20923;-74
2021/11/12 09:35:58;;;;;;;9.73;5.75;;;;;;;9.40;64.27;101394.36;1783721;80;21438;-73
2021/11/12 09:38:26;;;;;;;9.13;6.30;;;;;;;9.41;64.33;101390.00;1783750;80;21086;-72
2021/11/12 09:40:55;;;;;;;8.50;5.97;;;;;;;9.43;64.19;101389.02;1783203;80;21448;-73
2021/11/12 09:43:25;;;;;;;9.68;6.15;;;;;;;9.42;64.00;101385.98;1783988;80;20868;-72
2021/11/12 09:45:54;;;;;;;8.15;6.50;;;;;;;9.39;63.89;101383.51;1783538;80;20920;-75
2021/11/12 09:48:21;;;;;;;12.80;6.45;;;;;;;9.41;64.24;101376.44;1783660;80;20936;-74
2021/11/12 09:50:48;;;;;;;8.55;6.83;;;;;;;9.49;64.12;101374.36;1783639;80;21113;-73
2021/11/12 09:53:15;;;;;;;7.30;6.03;;;;;;;9.64;63.96;101373.28;1783523;80;21099;-77
2021/11/12 09:55:43;;;;;;;10.08;6.62;;;;;;;9.79;63.54;101377.84;1784148;80;20940;-72
2021/11/12 09:58:12;;;;;;;8.65;5.97;;;;;;;9.91;62.61;101367.27;1753639;80;20892;-73
2021/11/12 10:00:39;;;;;;;8.63;5.37;;;;;;;9.92;62.53;101355.41;1783756;80;20936;-73
2021/11/12 10:03:08;;;;;;;11.03;6.17;;;;;;;10.00;62.52;101355.05;1783788;80;21466;-73
2021/11/12 10:05:42;;;;;;;8.15;5.67;;;;;;;10.25;62.51;101355.22;1783749;80;20955;-73
2021/11/12 10:08:31;;;;;;;9.48;5.72;;;;;;;10.71;61.61;101343.89;1784129;80;20983;-71
2021/11/12 10:11:02;;;;;;;7.78;6.10;;;;;;;11.22;60.42;101342.67;1783807;80;20967;-74
2021/11/12 10:13:35;;;;;;;7.90;6.45;;;;;;;11.73;59.11;101348.30;1783643;80;21299;-74
2021/11/12 10:16:13;;;;;;;11.60;7.97;;;;;;;12.13;58.03;101343.55;1776883;80;21146;-80
2021/11/12 10:18:36;;;;;;;8.90;6.47;;;;;;;12.48;57.11;101335.96;1774281;80;20991;-75
2021/11/12 10:21:04;;;;;;;7.60;6.50;;;;;;;12.72;55.71;101342.93;1775382;80;20972;-74
2021/11/12 10:23:32;;;;;;;10.40;6.75;;;;;;;12.88;55.30;101335.83;1775474;80;21346;-73
2021/11/12 10:26:03;;;;;;;10.60;7.58;;;;;;;12.98;55.01;101331.73;1775562;80;20936;-74
2021/11/12 10:28:42;;;;;;;9.20;7.40;;;;;;;13.10;54.31;101329.31;1775356;80;21092;-73
2021/11/12 10:31:18;;;;;;;8.45;6.70;;;;;;;13.20;54.45;101328.66;1774361;80;20940;-75
2021/11/12 10:33:52;;;;;;;8.63;6.72;;;;;;;13.39;53.90;101331.55;1774864;80;20936;-74
2021/11/12 10:36:20;;;;;;;9.28;6.70;;;;;;;13.60;52.88;101324.12;1775423;80;20936;-73
2021/11/12 10:38:49;;;;;;;8.55;6.20;;;;;;;13.80;52.79;101335.59;1774889;80;20940;-74
2021/11/12 10:41:22;;;;;;;6.28;5.12;;;;;;;14.06;52.26;101328.69;1774864;80;21063;-74
2021/11/12 10:43:51;;;;;;;6.90;6.22;;;;;;;14.45;51.02;101329.73;1774475;80;20944;-75
2021/11/12 10:46:43;;;;;;;11.08;6.05;;;;;;;14.78;50.41;101331.11;1775282;80;20987;-74
2021/11/12 10:49:35;;;;;;;7.40;6.25;;;;;;;14.99;49.42;101320.92;1774505;80;21524;-74
2021/11/12 10:52:15;;;;;;;9.90;6.40;;;;;;;15.02;49.10;101323.34;1775261;80;21342;-75
2021/11/12 10:54:59;;;;;;;8.78;6.83;;;;;;;14.93;48.28;101322.17;1774609;80;21608;-75
2021/11/12 10:57:35;;;;;;;10.98;6.62;;;;;;;14.73;48.47;101312.58;1774420;80;21524;-75
2021/11/12 11:00:11;;;;;;;10.18;6.55;;;;;;;14.26;48.88;101308.11;1774759;80;20924;-75
2021/11/12 11:02:46;;;;;;;8.03;6.62;;;;;;;14.26;48.88;101308.11;1774521;80;20975;-73
2021/11/12 11:05:24;;;;;;;7.90;6.33;;;;;;;13.92;49.50;101308.95;1774385;80;21456;-74
2021/11/12 11:07:57;;;;;;;7.33;6.05;;;;;;;13.67;50.01;101301.70;1774258;80;21054;-74
2021/11/12 11:10:39;;;;;;;8.55;7.15;;;;;;;13.48;50.43;101309.91;1774960;80;20857;-74
2021/11/12 11:13:19;;;;;;;7.05;5.95;;;;;;;13.29;51.04;101310.64;1775415;80;20991;-75
2021/11/12 11:15:51;;;;;;;8.00;6.37;;;;;;;13.04;51.52;101311.60;1775008;80;21010;-75
2021/11/12 11:18:40;;;;;;;8.48;6.62;;;;;;;12.79;52.11;101300.84;1774600;80;20885;-75
2021/11/12 11:24:05;;;;;;;9.05;6.58;;;;;;;12.30;53.29;101295.28;1775082;80;20932;-78
2021/11/12 11:26:48;;;;;;;9.88;7.62;;;;;;;12.12;53.53;101297.64;1775188;80;20893;-74
2021/11/12 11:29:20;;;;;;;10.35;7.87;;;;;;;11.95;54.03;101302.03;1775164;80;20983;-74
2021/11/12 11:31:47;;;;;;;11.10;7.87;;;;;;;11.85;54.36;101294.25;1775581;80;21437;-75
2021/11/12 11:34:14;;;;;;;10.75;8.00;;;;;;;11.77;54.78;101292.50;1775544;80;21147;-76
2021/11/12 11:36:45;;;;;;;10.58;8.18;;;;;;;11.73;54.96;101285.70;1775462;80;20873;-75
2021/11/12 11:39:15;;;;;;;9.78;6.67;;;;;;;11.69;55.10;101282.38;1775314;80;20845;-73
2021/11/12 11:41:44;;;;;;;9.50;7.25;;;;;;;11.64;55.25;101287.52;1775647;80;20896;-74
2021/11/12 11:44:19;;;;;;;8.18;6.92;;;;;;;11.60;55.39;101281.13;1775284;80;21010;-74
2021/11/12 11:46:48;;;;;;;7.90;6.05;;;;;;;11.59;55.46;101285.98;1775549;80;21117;-74
2021/11/12 11:49:19;;;;;;;7.67;5.80;;;;;;;11.59;55.67;101278.58;1775451;80;20873;-75
2021/11/12 11:51:52;;;;;;;9.08;5.92;;;;;;;11.59;55.43;101278.10;1774398;80;21003;-73
2021/11/12 11:54:21;;;;;;;10.53;6.67;;;;;;;11.57;55.55;101277.33;1775795;80;20951;-72
2021/11/12 11:56:58;;;;;;;10.75;6.10;;;;;;;11.63;55.57;101281.42;1775465;80;21085;-73
2021/11/12 11:59:35;;;;;;;9.30;6.83;;;;;;;11.68;55.41;101278.08;1775115;80;21745;-73
2021/11/12 12:02:06;;;;;;;10.30;6.67;;;;;;;11.78;55.46;101274.47;1775623;80;21066;-74
2021/11/12 12:04:40;;;;;;;10.90;7.03;;;;;;;11.95;55.50;101272.27;1753134;80;20901;-73
2021/11/12 12:07:18;;;;;;;8.28;6.75;;;;;;;12.08;55.22;101273.29;1775304;80;21377;-74
2021/11/12 12:10:01;;;;;;;13.75;7.20;;;;;;;12.20;55.08;101278.31;1775509;80;20940;-73
2021/11/12 12:12:37;;;;;;;8.60;6.37;;;;;;;12.26;54.56;101277.98;1775800;80;21808;-73
2021/11/12 12:15:12;;;;;;;6.72;5.42;;;;;;;12.20;53.85;101276.53;1775213;80;21051;-74
2021/11/12 12:17:47;;;;;;;6.58;5.62;;;;;;;12.10;53.63;101275.38;1775399;80;20889;-72
2021/11/12 12:35:47;;;;;;;8.50;5.67;;;;;;;11.65;53.51;101262.93;1732699;80;21173;-74
2021/11/12 12:41:19;;;;;;;11.03;7.10;;;;;;;11.52;53.83;101268.86;1655785;85;21425;-75
2021/11/12 13:25:59;;;;;;;10.53;7.67;;;;;;;9.96;57.11;101277.06;1757552;80;20979;-72
2021/11/12 13:28:40;;;;;;;14.87;8.15;;;;;;;9.85;57.39;101270.61;1754053;80;20936;-75
2021/11/12 13:31:22;;;;;;;15.20;8.43;;;;;;;9.75;57.69;101278.89;1745035;80;21537;-75
2021/11/12 13:34:01;;;;;;;11.73;7.72;;;;;;;9.67;57.93;101285.40;1744955;81;20960;-75
2021/11/12 13:36:34;;;;;;;9.90;8.00;;;;;;;9.59;58.22;101283.14;1744760;81;20955;-70
2021/11/12 13:39:19;;;;;;;11.78;8.03;;;;;;;9.50;58.49;101287.02;1745377;81;21014;-75
2021/11/12 13:41:55;;;;;;;11.65;8.35;;;;;;;9.43;58.69;101297.85;1743989;81;20932;-73
2021/11/12 13:44:25;;;;;;;13.43;9.63;;;;;;;9.34;58.97;101300.41;1744303;81;21532;-75
2021/11/12 13:46:57;;;;;;;14.25;9.40;;;;;;;9.25;59.21;101306.02;1743979;80;20975;-74
2021/11/12 13:49:32;;;;;;;12.13;8.48;;;;;;;9.15;59.37;101303.43;1744674;82;21073;-75
2021/11/12 13:52:06;;;;;;;13.40;8.98;;;;;;;9.05;59.56;101305.14;1744793;80;20901;-74
2021/11/12 13:54:43;;;;;;;15.35;8.95;;;;;;;8.98;59.79;101308.94;1744626;81;20956;-74
2021/11/12 13:57:18;;;;;;;12.10;8.88;;;;;;;8.88;60.03;101306.30;1742710;81;21132;-75
2021/11/12 13:59:58;;;;;;;18.70;10.05;;;;;;;8.77;60.31;101305.44;1744977;81;21019;-73
2021/11/12 14:02:26;;;;;;;14.40;10.32;;;;;;;8.69;60.52;101307.50;1744804;81;20921;-74
2021/11/12 14:04:53;;;;;;;15.80;10.60;;;;;;;8.61;60.80;101313.52;1744400;81;20885;-74
2021/11/12 14:07:24;;;;;;;20.40;11.48;;;;;;;8.52;61.01;101308.67;1744402;81;20922;-73
2021/11/12 14:10:07;;;;;;;16.15;11.33;;;;;;;8.45;61.27;101303.69;1744909;81;21119;-73
2021/11/12 14:12:34;;;;;;;19.50;13.20;;;;;;;8.37;61.45;101302.25;1744370;81;20932;-73
2021/11/12 14:15:15;;;;;;;22.02;13.05;;;;;;;8.28;61.74;101309.53;1744290;81;20893;-72
2021/11/12 14:17:55;;;;;;;16.25;11.85;;;;;;;8.21;62.03;101303.31;1744078;81;20944;-76
2021/11/12 14:20:19;;;;;;;19.42;13.40;;;;;;;8.13;62.25;101311.44;1742909;81;20933;-75
2021/11/12 14:25:28;;;;;;;23.87;14.45;;;;;;;8.00;62.81;101313.66;1744825;81;20928;-75
2021/11/12 14:28:33;;;;;;;21.77;15.08;;;;;;;7.95;63.18;101314.77;1743852;81;20990;-76
2021/11/12 14:31:04;;;;;;;38.33;23.10;;;;;;;7.88;63.39;101312.38;1743850;81;21408;-73
2021/11/12 14:36:16;;;;;;;36.25;20.57;;;;;;;7.77;63.89;101316.30;1744303;81;21155;-76
2021/11/12 14:38:48;;;;;;;37.23;21.12;;;;;;;7.72;64.10;101320.39;1744064;81;20853;-75
2021/11/12 14:44:47;;;;;;;38.60;24.98;;;;;;;7.64;64.50;101335.02;1744077;81;20904;-73
2021/11/12 14:54:32;;;;;;;35.75;21.68;;;;;;;7.46;65.24;101341.75;1583088;90;21006;-72
2021/11/12 14:57:03;;;;;;;44.33;23.67;;;;;;;7.42;65.43;101344.52;1584021;90;20898;-73
2021/11/12 14:59:32;;;;;;;40.83;23.42;;;;;;;7.37;65.58;101347.30;1583430;90;20882;-73
2021/11/12 15:02:02;;;;;;;39.20;24.70;;;;;;;7.33;65.71;101349.60;1584179;90;21182;-73
2021/11/12 15:04:28;;;;;;;35.88;22.90;;;;;;;7.29;65.89;101355.83;1584233;90;20938;-75
2021/11/12 15:06:57;;;;;;;43.98;27.35;;;;;;;7.25;66.08;101356.87;1583893;90;20942;-75
2021/11/12 15:09:28;;;;;;;40.88;25.05;;;;;;;7.21;66.19;101362.63;1583406;90;20974;-73
2021/11/12 15:11:52;;;;;;;34.92;23.12;;;;;;;7.20;66.26;101366.58;1583081;90;20934;-73
2021/11/12 15:14:25;;;;;;;43.42;26.82;;;;;;;7.15;66.39;101365.44;1583546;90;21174;-74
2021/11/12 15:16:48;;;;;;;37.20;25.97;;;;;;;7.09;66.68;101361.72;1583336;90;21548;-73
2021/11/12 15:19:18;;;;;;;43.00;26.40;;;;;;;7.01;66.91;101369.81;1583497;90;21551;-73
2021/11/12 15:21:53;;;;;;;39.45;26.97;;;;;;;6.94;67.11;101365.71;1583930;90;21655;-73
2021/11/12 15:24:38;;;;;;;42.67;27.27;;;;;;;6.88;67.33;101365.91;1583112;90;21017;-71
2021/11/12 15:29:54;;;;;;;;;;;;;;;6.79;67.82;101373.57;1738322;81;21382;-73
2021/11/12 15:32:22;;;;;;;44.42;30.20;;;;;;;6.76;68.06;101371.08;1743357;80;20156;-73
2021/11/12 15:34:52;;;;;;;51.83;31.37;;;;;;;6.72;68.20;101377.28;1743858;81;21462;-73
2021/11/12 15:42:35;;;;;;;57.95;33.25;;;;;;;6.63;68.30;101388.84;1744207;81;20865;-73
2021/11/12 15:47:30;;;;;;;;;;;;;;;6.53;68.46;101385.27;1697014;83;21352;-74
2021/11/12 15:50:04;;;;;;;68.60;37.03;;;;;;;6.49;68.60;101388.44;1679449;84;20086;-73
2021/11/12 15:52:36;;;;;;;80.20;50.05;;;;;;;6.43;68.75;101392.06;1695139;83;21165;-73
2021/11/12 15:55:01;;;;;;;77.70;47.53;;;;;;;6.40;68.94;101397.80;1680756;83;20963;-75
2021/11/12 15:57:49;;;;;;;73.35;44.80;;;;;;;6.38;69.15;101399.60;1694536;81;20907;-72
2021/11/12 16:13:18;;;;;;;57.17;36.05;;;;;;;6.34;69.57;101408.44;1679484;84;20880;-73
2021/11/12 16:16:33;;;;;;;61.37;34.13;;;;;;;6.28;69.66;101407.30;1695054;83;21425;-73
2021/11/12 16:18:26;;;;;;;55.67;35.40;;;;;;;6.22;69.78;101409.63;1684168;83;22626;-75